createdAt,value
2023-04-30T00:00:42.503Z,77.91
2023-04-30T00:03:11.119Z,78.17
2023-04-30T00:05:39.979Z,77.85
2023-04-30T00:08:08.374Z,78.10
2023-04-30T00:10:38.250Z,78.18
2023-04-30T00:13:06.679Z,78.74
2023-04-30T00:15:35.033Z,78.46
2023-04-30T00:18:03.648Z,78.31
2023-04-30T00:20:32.641Z,78.39
2023-04-30T00:23:01.021Z,78.30
2023-04-30T00:25:29.526Z,78.76
2023-04-30T00:27:59.190Z,78.65
2023-04-30T00:30:27.715Z,78.24
2023-04-30T00:32:56.204Z,78.54
2023-04-30T00:35:26.616Z,78.49
2023-04-30T00:37:55.071Z,78.65
2023-04-30T00:40:23.477Z,78.66
2023-04-30T00:42:53.680Z,78.63
2023-04-30T00:45:23.751Z,78.51
2023-04-30T00:47:52.309Z,78.82
2023-04-30T00:50:21.260Z,78.46
2023-04-30T00:52:49.925Z,78.97
2023-04-30T00:55:18.949Z,79.08
2023-04-30T00:57:47.958Z,78.67
2023-04-30T01:00:20.693Z,78.93
2023-04-30T01:02:51.587Z,79.56
2023-04-30T01:05:20.003Z,79.20
2023-04-30T01:07:48.430Z,79.15
2023-04-30T01:10:17.661Z,78.93
2023-04-30T01:12:54.921Z,78.94
2023-04-30T01:15:29.427Z,79.05
2023-04-30T01:18:07.897Z,79.05
2023-04-30T01:20:40.677Z,78.93
2023-04-30T01:23:28.292Z,78.72
2023-04-30T01:26:12.262Z,78.81
2023-04-30T01:28:45.374Z,78.93
2023-04-30T01:31:15.755Z,78.69
2023-04-30T01:33:44.206Z,78.64
2023-04-30T01:36:31.978Z,78.56
2023-04-30T01:39:21.597Z,78.27
2023-04-30T01:42:01.839Z,78.47
2023-04-30T01:44:55.429Z,78.50
2023-04-30T01:47:35.060Z,78.37
2023-04-30T01:50:16.428Z,78.50
2023-04-30T01:52:48.940Z,78.43
2023-04-30T01:55:23.639Z,78.32
2023-04-30T01:57:58.517Z,78.36
2023-04-30T02:00:30.716Z,79.10
2023-04-30T02:02:59.780Z,79.12
2023-04-30T02:05:28.199Z,79.19
2023-04-30T02:07:58.679Z,79.20
2023-04-30T02:10:29.621Z,79.13
2023-04-30T02:12:58.065Z,78.88
2023-04-30T02:15:26.629Z,79.07
2023-04-30T02:17:56.658Z,79.30
2023-04-30T02:20:25.162Z,79.35
2023-04-30T02:22:54.512Z,79.50
2023-04-30T02:25:22.951Z,79.44
2023-04-30T02:27:51.934Z,79.49
2023-04-30T02:30:21.135Z,79.97
2023-04-30T02:32:49.588Z,79.97
2023-04-30T02:35:19.648Z,79.80
2023-04-30T02:37:48.132Z,79.50
2023-04-30T02:40:16.700Z,79.27
2023-04-30T02:42:45.091Z,79.66
2023-04-30T02:45:13.561Z,79.57
2023-04-30T02:47:42.126Z,79.90
2023-04-30T02:50:11.095Z,79.44
2023-04-30T02:52:40.965Z,79.32
2023-04-30T02:55:10.230Z,79.53
2023-04-30T02:57:39.071Z,79.60
2023-04-30T03:00:08.907Z,79.91
2023-04-30T03:02:37.834Z,80.02
2023-04-30T03:05:07.057Z,79.80
2023-04-30T03:07:35.476Z,79.84
2023-04-30T03:10:05.867Z,79.89
2023-04-30T03:12:34.913Z,79.71
2023-04-30T03:15:03.796Z,79.41
2023-04-30T03:17:32.265Z,79.71
2023-04-30T03:20:00.760Z,79.45
2023-04-30T03:22:29.288Z,79.31
2023-04-30T03:24:57.749Z,79.32
2023-04-30T03:27:27.555Z,78.95
2023-04-30T03:29:56.361Z,78.77
2023-04-30T03:32:25.381Z,79.28
2023-04-30T03:34:53.764Z,78.98
2023-04-30T03:37:22.224Z,79.08
2023-04-30T03:39:50.870Z,79.11
2023-04-30T03:42:19.324Z,78.85
2023-04-30T03:44:49.100Z,78.52
2023-04-30T03:47:17.659Z,79.11
2023-04-30T03:49:46.249Z,78.87
2023-04-30T03:52:14.588Z,78.68
2023-04-30T03:54:43.062Z,78.61
2023-04-30T03:57:14.064Z,78.40
2023-04-30T03:59:42.883Z,78.06
2023-04-30T04:02:13.754Z,77.94
2023-04-30T04:04:42.412Z,77.52
2023-04-30T04:07:11.635Z,77.56
2023-04-30T04:09:40.124Z,77.40
2023-04-30T04:12:09.105Z,77.10
2023-04-30T04:14:38.025Z,77.23
2023-04-30T04:17:06.589Z,77.35
2023-04-30T04:19:36.451Z,77.45
2023-04-30T04:22:05.082Z,77.26
2023-04-30T04:24:33.577Z,77.19
2023-04-30T04:27:04.315Z,77.31
2023-04-30T04:29:34.339Z,77.17
2023-04-30T04:32:04.549Z,77.28
2023-04-30T04:34:34.020Z,76.83
2023-04-30T04:37:03.947Z,76.89
2023-04-30T04:39:32.659Z,76.84
2023-04-30T04:42:01.455Z,76.48
2023-04-30T04:44:30.056Z,76.47
2023-04-30T04:46:58.859Z,76.27
2023-04-30T04:49:27.438Z,76.53
2023-04-30T04:51:55.889Z,76.29
2023-04-30T04:54:25.701Z,76.34
2023-04-30T04:56:55.815Z,76.48
2023-04-30T04:59:24.491Z,76.99
2023-04-30T05:01:53.033Z,77.44
2023-04-30T05:04:21.689Z,77.78
2023-04-30T05:06:51.086Z,77.66
2023-04-30T05:09:19.476Z,77.75
2023-04-30T05:11:49.382Z,78.14
2023-04-30T05:14:17.974Z,78.56
2023-04-30T05:16:47.077Z,78.65
2023-04-30T05:19:15.694Z,78.67
2023-04-30T05:21:44.265Z,78.59
2023-04-30T05:24:12.657Z,78.61
2023-04-30T05:26:41.130Z,78.50
2023-04-30T05:29:12.265Z,78.57
2023-04-30T05:31:40.851Z,78.64
2023-04-30T05:34:09.306Z,78.73
2023-04-30T05:36:37.873Z,78.84
2023-04-30T05:39:06.582Z,78.61
2023-04-30T05:41:35.004Z,78.93
2023-04-30T05:44:05.236Z,78.74
2023-04-30T05:46:36.349Z,78.83
2023-04-30T05:49:04.747Z,79.05
2023-04-30T05:51:33.246Z,79.19
2023-04-30T05:54:01.798Z,79.18
2023-04-30T05:56:30.177Z,79.26
2023-04-30T05:58:58.744Z,79.02
2023-04-30T06:01:28.977Z,78.99
2023-04-30T06:03:59.708Z,79.28
2023-04-30T06:06:28.497Z,79.40
2023-04-30T06:08:57.028Z,79.56
2023-04-30T06:11:26.408Z,79.22
2023-04-30T06:13:54.884Z,78.96
2023-04-30T06:16:23.393Z,78.70
2023-04-30T06:18:53.587Z,78.50
2023-04-30T06:21:26.148Z,78.49
2023-04-30T06:23:54.694Z,78.58
2023-04-30T06:26:23.030Z,78.88
2023-04-30T06:28:51.494Z,79.49
2023-04-30T06:31:19.961Z,79.40
2023-04-30T06:33:48.530Z,79.53
2023-04-30T06:36:16.880Z,79.54
2023-04-30T06:38:47.516Z,78.95
2023-04-30T06:41:16.480Z,78.86
2023-04-30T06:43:45.202Z,79.03
2023-04-30T06:46:15.280Z,78.91
2023-04-30T06:48:43.781Z,78.43
2023-04-30T06:51:12.219Z,78.74
2023-04-30T06:53:40.625Z,78.94
2023-04-30T06:56:10.533Z,79.01
2023-04-30T06:58:38.943Z,79.38
2023-04-30T07:01:07.562Z,79.25
2023-04-30T07:03:36.550Z,78.76
2023-04-30T07:06:05.456Z,78.58
2023-04-30T07:08:33.855Z,78.36
2023-04-30T07:11:02.249Z,78.44
2023-04-30T07:13:32.052Z,78.70
2023-04-30T07:16:00.933Z,78.93
2023-04-30T07:18:29.486Z,78.91
2023-04-30T07:20:57.976Z,78.09
2023-04-30T07:23:32.374Z,77.02
2023-04-30T07:26:01.948Z,75.74
2023-04-30T07:28:33.852Z,75.49
2023-04-30T07:31:02.299Z,75.23
2023-04-30T07:33:30.690Z,74.92
2023-04-30T07:35:59.265Z,74.17
2023-04-30T07:38:27.933Z,72.56
2023-04-30T07:40:56.472Z,72.02
2023-04-30T07:43:24.963Z,72.18
2023-04-30T07:45:55.256Z,71.64
2023-04-30T07:48:23.638Z,72.02
2023-04-30T07:50:52.937Z,71.20
2023-04-30T07:53:21.554Z,71.15
2023-04-30T07:55:49.949Z,69.60
2023-04-30T07:58:18.436Z,69.04
2023-04-30T08:00:46.845Z,69.74
2023-04-30T08:03:16.884Z,68.31
2023-04-30T08:05:46.363Z,68.70
2023-04-30T08:08:14.719Z,68.69
2023-04-30T08:10:43.276Z,69.47
2023-04-30T08:13:11.655Z,69.29
2023-04-30T08:15:40.258Z,69.32
2023-04-30T08:18:08.785Z,69.22
2023-04-30T08:20:38.848Z,69.02
2023-04-30T08:23:07.306Z,68.59
2023-04-30T08:25:36.255Z,69.12
2023-04-30T08:28:04.663Z,69.38
2023-04-30T08:30:33.103Z,69.10
2023-04-30T08:33:01.711Z,68.61
2023-04-30T08:35:30.950Z,68.37
2023-04-30T08:38:00.745Z,67.85
2023-04-30T08:40:49.417Z,67.02
2023-04-30T08:43:19.875Z,67.20
2023-04-30T08:45:50.219Z,66.67
2023-04-30T08:48:20.437Z,67.12
2023-04-30T08:50:48.999Z,67.16
2023-04-30T08:53:21.772Z,67.61
2023-04-30T08:55:50.262Z,66.51
2023-04-30T08:58:18.721Z,66.31
2023-04-30T09:00:47.255Z,65.39
2023-04-30T09:03:16.259Z,66.25
2023-04-30T09:05:44.839Z,65.56
2023-04-30T09:08:20.464Z,66.14
2023-04-30T09:10:49.106Z,63.79
2023-04-30T09:13:17.592Z,62.40
2023-04-30T09:15:46.909Z,62.05
2023-04-30T09:18:18.218Z,62.57
2023-04-30T09:20:58.891Z,60.91
2023-04-30T09:23:28.978Z,61.00
2023-04-30T09:25:58.121Z,61.97
2023-04-30T09:28:28.806Z,60.99
2023-04-30T09:30:59.159Z,59.79
2023-04-30T09:33:27.767Z,57.42
2023-04-30T09:35:56.175Z,56.94
2023-04-30T09:38:30.891Z,57.95
2023-04-30T09:41:01.141Z,57.22
2023-04-30T09:43:29.946Z,55.93
2023-04-30T09:46:00.387Z,53.45
2023-04-30T09:48:29.480Z,54.74
2023-04-30T09:50:57.959Z,53.41
2023-04-30T09:53:26.502Z,53.15
2023-04-30T09:55:59.704Z,53.39
2023-04-30T09:58:29.994Z,51.88
2023-04-30T10:01:02.982Z,54.34
2023-04-30T10:03:33.612Z,52.23
2023-04-30T10:06:03.674Z,52.51
2023-04-30T10:08:37.723Z,52.17
2023-04-30T10:11:09.778Z,49.52
2023-04-30T10:13:44.570Z,49.53
2023-04-30T10:16:21.892Z,50.35
2023-04-30T10:18:53.327Z,47.08
2023-04-30T10:21:26.981Z,47.57
2023-04-30T10:23:56.756Z,45.71
2023-04-30T10:26:27.116Z,46.37
2023-04-30T10:29:01.115Z,44.05
2023-04-30T10:31:31.659Z,44.30
2023-04-30T10:34:09.790Z,43.94
2023-04-30T10:36:44.814Z,43.20
2023-04-30T10:39:14.213Z,45.27
2023-04-30T10:41:47.116Z,46.16
2023-04-30T10:44:17.512Z,45.49
2023-04-30T10:46:48.025Z,44.87
2023-04-30T10:49:16.484Z,45.15
2023-04-30T10:51:54.407Z,42.52
2023-04-30T10:54:28.871Z,43.32
2023-04-30T10:57:12.127Z,43.92
2023-04-30T10:59:45.259Z,43.07
2023-04-30T11:02:16.654Z,43.81
2023-04-30T11:05:13.510Z,42.11
2023-04-30T11:07:52.809Z,42.97
2023-04-30T11:10:24.301Z,42.52
2023-04-30T11:12:55.824Z,43.63
2023-04-30T11:15:27.627Z,43.69
2023-04-30T11:17:59.198Z,43.18
2023-04-30T11:20:29.098Z,43.18
2023-04-30T11:23:21.800Z,42.61
2023-04-30T11:25:57.918Z,43.42
2023-04-30T11:28:28.997Z,43.16
2023-04-30T11:30:58.620Z,44.59
2023-04-30T11:33:28.745Z,44.11
2023-04-30T11:35:58.749Z,43.59
2023-04-30T11:38:29.364Z,45.43
2023-04-30T11:40:59.145Z,45.63
2023-04-30T11:43:36.338Z,46.88
2023-04-30T11:46:08.643Z,45.61
2023-04-30T11:48:38.728Z,44.37
2023-04-30T11:51:15.941Z,43.21
2023-04-30T11:53:47.773Z,41.61
2023-04-30T11:56:19.494Z,41.78
2023-04-30T11:58:50.066Z,43.07
2023-04-30T12:01:19.100Z,42.94
2023-04-30T12:03:48.862Z,42.96
2023-04-30T12:06:24.271Z,43.16
2023-04-30T12:08:55.179Z,42.57
2023-04-30T12:11:25.389Z,41.19
2023-04-30T12:14:03.452Z,42.47
2023-04-30T12:16:41.487Z,42.66
2023-04-30T12:19:10.918Z,40.47
2023-04-30T12:21:40.380Z,39.82
2023-04-30T12:24:08.830Z,40.88
2023-04-30T12:26:39.013Z,42.38
2023-04-30T12:29:11.206Z,44.08
2023-04-30T12:31:41.611Z,45.06
2023-04-30T12:34:11.702Z,45.80
2023-04-30T12:36:43.611Z,46.17
2023-04-30T12:39:13.515Z,46.94
2023-04-30T12:41:44.278Z,46.98
2023-04-30T12:44:18.897Z,47.59
2023-04-30T12:46:48.334Z,47.76
2023-04-30T12:49:27.533Z,48.08
2023-04-30T12:52:02.450Z,49.18
2023-04-30T12:54:32.877Z,50.21
2023-04-30T12:57:03.627Z,49.86
2023-04-30T12:59:34.695Z,48.49
2023-04-30T13:02:10.693Z,46.38
2023-04-30T13:04:39.951Z,46.43
2023-04-30T13:07:08.504Z,45.80
2023-04-30T13:09:38.112Z,45.36
2023-04-30T13:12:06.660Z,45.63
2023-04-30T13:14:36.566Z,44.93
2023-04-30T13:17:07.546Z,45.48
2023-04-30T13:19:36.023Z,45.43
2023-04-30T13:22:04.464Z,45.62
2023-04-30T13:24:33.021Z,46.03
2023-04-30T13:27:02.869Z,47.04
2023-04-30T13:29:33.277Z,47.03
2023-04-30T13:32:04.344Z,47.10
2023-04-30T13:34:33.004Z,46.85
2023-04-30T13:37:01.811Z,47.41
2023-04-30T13:39:30.252Z,47.67
2023-04-30T13:41:59.594Z,48.35
2023-04-30T13:44:28.155Z,48.84
2023-04-30T13:46:56.998Z,48.77
2023-04-30T13:49:26.925Z,49.54
2023-04-30T13:51:55.381Z,50.49
2023-04-30T13:54:23.747Z,51.10
2023-04-30T13:56:52.167Z,51.14
2023-04-30T13:59:20.723Z,51.51
2023-04-30T14:01:49.121Z,52.27
2023-04-30T14:04:18.746Z,53.05
2023-04-30T14:06:49.237Z,53.12
2023-04-30T14:09:18.165Z,53.35
2023-04-30T14:11:46.493Z,54.32
2023-04-30T14:14:14.924Z,54.29
2023-04-30T14:16:45.429Z,53.57
2023-04-30T14:19:13.940Z,53.94
2023-04-30T14:21:42.399Z,54.69
2023-04-30T14:24:13.553Z,54.43
2023-04-30T14:26:42.103Z,54.47
2023-04-30T14:29:10.593Z,53.76
2023-04-30T14:31:39.219Z,53.21
2023-04-30T14:34:07.670Z,53.44
2023-04-30T14:36:37.018Z,54.12
2023-04-30T14:39:05.681Z,54.28
2023-04-30T14:41:37.827Z,54.41
2023-04-30T14:44:06.432Z,54.50
2023-04-30T14:46:35.030Z,55.19
2023-04-30T14:49:04.504Z,54.73
2023-04-30T14:51:33.463Z,54.79
2023-04-30T14:54:02.834Z,55.29
2023-04-30T14:56:31.318Z,55.42
2023-04-30T14:59:01.484Z,54.73
2023-04-30T15:01:30.594Z,54.37
2023-04-30T15:03:59.471Z,55.55
2023-04-30T15:06:28.159Z,55.53
2023-04-30T15:08:56.982Z,55.43
2023-04-30T15:11:25.431Z,55.35
2023-04-30T15:13:54.706Z,55.57
2023-04-30T15:16:25.251Z,55.17
2023-04-30T15:18:54.421Z,54.66
2023-04-30T15:21:22.840Z,54.43
2023-04-30T15:23:51.405Z,54.71
2023-04-30T15:26:19.818Z,52.22
2023-04-30T15:28:48.382Z,52.44
2023-04-30T15:31:16.936Z,54.97
2023-04-30T15:33:46.807Z,57.29
2023-04-30T15:36:15.239Z,56.76
2023-04-30T15:38:43.649Z,55.73
2023-04-30T15:41:12.050Z,54.72
2023-04-30T15:43:40.678Z,52.53
2023-04-30T15:46:09.168Z,50.97
2023-04-30T15:48:37.606Z,50.49
2023-04-30T15:51:07.522Z,49.88
2023-04-30T15:53:36.327Z,49.26
2023-04-30T15:56:05.588Z,48.52
2023-04-30T15:58:35.002Z,49.02
2023-04-30T16:01:03.805Z,48.48
2023-04-30T16:03:32.424Z,48.70
2023-04-30T16:06:03.007Z,47.70
2023-04-30T16:08:34.262Z,48.21
2023-04-30T16:11:04.052Z,46.77
2023-04-30T16:13:33.411Z,46.26
2023-04-30T16:16:01.994Z,45.52
2023-04-30T16:18:31.047Z,45.74
2023-04-30T16:21:00.451Z,46.46
2023-04-30T16:23:28.880Z,47.39
2023-04-30T16:25:58.672Z,47.95
2023-04-30T16:28:28.543Z,48.51
2023-04-30T16:30:57.351Z,49.85
2023-04-30T16:33:26.251Z,50.17
2023-04-30T16:35:55.340Z,50.33
2023-04-30T16:38:23.691Z,49.51
2023-04-30T16:40:52.184Z,49.86
2023-04-30T16:43:22.115Z,51.04
2023-04-30T16:45:51.630Z,51.30
2023-04-30T16:48:20.171Z,50.08
2023-04-30T16:50:48.610Z,49.64
2023-04-30T16:53:17.023Z,49.61
2023-04-30T16:55:46.427Z,49.98
2023-04-30T16:58:14.821Z,50.06
2023-04-30T17:00:44.797Z,50.22
2023-04-30T17:03:13.345Z,50.71
2023-04-30T17:05:42.736Z,50.26
2023-04-30T17:08:11.254Z,50.89
2023-04-30T17:10:40.306Z,50.20
2023-04-30T17:13:08.791Z,50.15
2023-04-30T17:15:37.482Z,50.50
2023-04-30T17:18:07.906Z,50.85
2023-04-30T17:20:36.526Z,50.74
2023-04-30T17:23:05.155Z,51.19
2023-04-30T17:25:33.926Z,51.30
2023-04-30T17:28:02.239Z,52.01
2023-04-30T17:30:30.869Z,52.23
2023-04-30T17:33:00.523Z,52.62
2023-04-30T17:35:30.358Z,52.65
2023-04-30T17:37:59.597Z,52.97
2023-04-30T17:40:27.997Z,52.88
2023-04-30T17:42:56.450Z,53.64
2023-04-30T17:45:26.919Z,54.61
2023-04-30T17:47:55.413Z,54.28
2023-04-30T17:50:23.816Z,54.33
2023-04-30T17:52:53.627Z,55.01
2023-04-30T17:55:22.104Z,54.71
2023-04-30T17:57:51.525Z,54.63
2023-04-30T18:00:20.335Z,55.11
2023-04-30T18:02:48.817Z,55.56
2023-04-30T18:05:17.369Z,55.45
2023-04-30T18:07:45.786Z,55.76
2023-04-30T18:10:16.806Z,56.27
2023-04-30T18:12:45.212Z,55.58
2023-04-30T18:15:15.368Z,54.86
2023-04-30T18:17:43.792Z,55.80
2023-04-30T18:20:13.174Z,56.23
2023-04-30T18:22:43.734Z,54.99
2023-04-30T18:25:13.374Z,54.51
2023-04-30T18:27:43.328Z,54.43
2023-04-30T18:30:12.928Z,54.41
2023-04-30T18:32:44.348Z,54.48
2023-04-30T18:35:12.846Z,54.11
2023-04-30T18:37:41.199Z,55.09
2023-04-30T18:40:10.838Z,54.89
2023-04-30T18:42:40.214Z,54.28
2023-04-30T18:45:11.930Z,53.90
2023-04-30T18:47:40.512Z,54.75
2023-04-30T18:50:13.613Z,56.41
2023-04-30T18:52:42.694Z,56.67
2023-04-30T18:55:14.000Z,56.56
2023-04-30T18:57:43.487Z,56.98
2023-04-30T19:00:14.791Z,56.62
2023-04-30T19:02:44.234Z,56.74
2023-04-30T19:05:12.783Z,57.53
2023-04-30T19:07:41.246Z,57.50
2023-04-30T19:10:10.364Z,57.23
2023-04-30T19:12:38.844Z,57.57
2023-04-30T19:15:08.546Z,58.19
2023-04-30T19:17:38.557Z,58.26
2023-04-30T19:20:09.468Z,58.38
2023-04-30T19:22:37.879Z,59.10
2023-04-30T19:25:07.238Z,59.43
2023-04-30T19:27:35.585Z,59.80
2023-04-30T19:30:04.115Z,60.50
2023-04-30T19:32:32.585Z,60.44
2023-04-30T19:35:03.403Z,60.76
2023-04-30T19:37:32.164Z,61.59
2023-04-30T19:40:00.522Z,62.04
2023-04-30T19:42:30.418Z,62.69
2023-04-30T19:44:58.784Z,63.37
2023-04-30T19:47:28.229Z,63.27
2023-04-30T19:49:57.058Z,63.46
2023-04-30T19:52:27.077Z,63.58
2023-04-30T19:54:55.732Z,63.41
2023-04-30T19:57:24.185Z,63.62
2023-04-30T19:59:52.571Z,63.97
2023-04-30T20:02:21.056Z,63.61
2023-04-30T20:04:49.520Z,63.74
2023-04-30T20:07:18.990Z,63.74
2023-04-30T20:09:48.895Z,64.02
2023-04-30T20:12:17.356Z,64.12
2023-04-30T20:14:45.782Z,64.39
2023-04-30T20:17:14.842Z,64.21
2023-04-30T20:19:43.317Z,64.27
2023-04-30T20:22:13.405Z,64.64
2023-04-30T20:24:44.926Z,64.67
2023-04-30T20:27:14.929Z,64.99
2023-04-30T20:29:43.358Z,65.43
2023-04-30T20:32:11.896Z,65.68
2023-04-30T20:34:40.374Z,65.65
2023-04-30T20:37:08.827Z,65.91
2023-04-30T20:39:39.458Z,66.14
2023-04-30T20:42:07.981Z,66.33
2023-04-30T20:44:37.731Z,66.32
2023-04-30T20:47:06.722Z,66.51
2023-04-30T20:49:35.112Z,66.55
2023-04-30T20:52:04.087Z,66.74
2023-04-30T20:54:32.850Z,66.84
2023-04-30T20:57:01.269Z,66.39
2023-04-30T20:59:29.785Z,66.16
2023-04-30T21:01:59.773Z,65.78
2023-04-30T21:04:28.765Z,65.68
2023-04-30T21:06:58.558Z,65.79
2023-04-30T21:09:27.025Z,65.84
2023-04-30T21:11:55.708Z,65.89
2023-04-30T21:14:24.261Z,66.12
2023-04-30T21:16:52.712Z,66.28
2023-04-30T21:19:23.295Z,66.27
2023-04-30T21:21:51.780Z,66.58
2023-04-30T21:24:20.245Z,66.88
2023-04-30T21:26:49.230Z,67.26
2023-04-30T21:29:17.596Z,67.44
2023-04-30T21:31:46.284Z,67.77
2023-04-30T21:34:14.759Z,67.99
2023-04-30T21:36:44.609Z,67.85
2023-04-30T21:39:13.067Z,67.58
2023-04-30T21:41:41.554Z,67.48
2023-04-30T21:44:10.013Z,67.40
2023-04-30T21:46:38.797Z,67.46
2023-04-30T21:49:07.219Z,67.86
2023-04-30T21:51:36.570Z,67.82
2023-04-30T21:54:06.526Z,68.14
2023-04-30T21:56:34.924Z,68.15
2023-04-30T21:59:03.439Z,68.28
2023-04-30T22:01:32.450Z,68.36
2023-04-30T22:04:02.268Z,68.87
2023-04-30T22:06:31.149Z,68.80
2023-04-30T22:08:59.948Z,68.97
2023-04-30T22:11:29.811Z,69.16
2023-04-30T22:13:59.092Z,69.11
2023-04-30T22:16:27.812Z,69.23
2023-04-30T22:18:58.726Z,69.22
2023-04-30T22:21:27.615Z,69.27
2023-04-30T22:23:58.802Z,69.22
2023-04-30T22:26:27.278Z,68.65
2023-04-30T22:28:57.300Z,68.78
2023-04-30T22:31:26.438Z,68.93
2023-04-30T22:33:54.924Z,68.41
2023-04-30T22:36:24.447Z,69.10
2023-04-30T22:38:52.823Z,68.82
2023-04-30T22:41:22.459Z,68.97
2023-04-30T22:43:51.870Z,68.73
2023-04-30T22:46:21.966Z,68.59
2023-04-30T22:48:50.662Z,68.66
2023-04-30T22:51:19.299Z,68.63
2023-04-30T22:53:47.883Z,68.43
2023-04-30T22:56:16.568Z,68.31
2023-04-30T22:58:45.000Z,67.80
2023-04-30T23:01:14.598Z,67.80
2023-04-30T23:03:45.551Z,67.91
2023-04-30T23:06:14.279Z,68.05
2023-04-30T23:08:42.730Z,68.71
2023-04-30T23:11:13.320Z,68.59
2023-04-30T23:13:41.833Z,68.61
2023-04-30T23:16:12.075Z,68.64
2023-04-30T23:18:40.583Z,68.72
2023-04-30T23:21:10.561Z,69.32
2023-04-30T23:23:39.051Z,69.01
2023-04-30T23:26:07.498Z,69.40
2023-04-30T23:28:37.048Z,69.22
2023-04-30T23:31:05.751Z,68.70
2023-04-30T23:33:35.258Z,68.84
2023-04-30T23:36:03.691Z,69.02
2023-04-30T23:38:33.680Z,69.26
2023-04-30T23:41:03.152Z,69.31
2023-04-30T23:43:33.116Z,69.24
2023-04-30T23:46:01.606Z,68.96
2023-04-30T23:48:30.578Z,68.66
2023-04-30T23:51:02.396Z,69.03
2023-04-30T23:53:31.062Z,69.29
2023-04-30T23:56:01.076Z,69.12
2023-04-30T23:58:31.068Z,69.09
